UKV2653 KGCN-KPHX
Flight info
| Callsign | UKV2653 |
|---|---|
| Flight time | 0h 44m |
| Altitude | 31000 |
| Route | PARKS4 PGS TENTS BRUSR1 |
| Aircraft | B38M/M-SDE1FGHILORVWXY/HB1 |
Departure
| Time | 2026-05-05 18:00 |
|---|---|
| Airport | Grand Canyon National Park Airport (KGCN) |
Arrival
| Time | 2026-05-05 18:45 |
|---|---|
| Airport | Phoenix Sky Harbor International Airport (KPHX) |
| Time | Latitude | Longitude | Altitude | Speed | Heading |
|---|---|---|---|---|---|
| 2026-05-05 17:18 | 35.96154 | -112.13507 | 6621 ft | 0 kts | 43° |
| 2026-05-05 17:48 | 35.96153 | -112.13509 | 6623 ft | 3 kts | 43° |
| 2026-05-05 17:48 | 35.96136 | -112.13528 | 6621 ft | 5 kts | 43° |
| 2026-05-05 17:53 | 35.96137 | -112.13528 | 6621 ft | 0 kts | 43° |
| 2026-05-05 17:53 | 35.96139 | -112.13526 | 6622 ft | 0 kts | 33° |
| 2026-05-05 17:53 | 35.96144 | -112.13526 | 6621 ft | 2 kts | 357° |
| 2026-05-05 17:54 | 35.96149 | -112.13533 | 6623 ft | 1 kts | 300° |
| 2026-05-05 17:54 | 35.96148 | -112.13545 | 6620 ft | 2 kts | 253° |
| 2026-05-05 17:54 | 35.96138 | -112.13574 | 6622 ft | 5 kts | 263° |
| 2026-05-05 17:54 | 35.96139 | -112.13582 | 6622 ft | 0 kts | 275° |
| 2026-05-05 17:58 | 35.96139 | -112.13586 | 6622 ft | 2 kts | 275° |
| 2026-05-05 17:58 | 35.96141 | -112.13644 | 6620 ft | 11 kts | 271° |
| 2026-05-05 17:58 | 35.96157 | -112.13705 | 6618 ft | 5 kts | 293° |
| 2026-05-05 17:58 | 35.96149 | -112.13730 | 6618 ft | 0 kts | 221° |
| 2026-05-05 17:59 | 35.96079 | -112.13805 | 6614 ft | 43 kts | 220° |
| 2026-05-05 17:59 | 35.95684 | -112.14220 | 6607 ft | 104 kts | 220° |
| 2026-05-05 17:59 | 35.94992 | -112.14947 | 6576 ft | 155 kts | 220° |
| 2026-05-05 18:00 | 35.94085 | -112.15896 | 6737 ft | 182 kts | 220° |
| 2026-05-05 18:00 | 35.93053 | -112.16925 | 7351 ft | 192 kts | 219° |
| 2026-05-05 18:00 | 35.92054 | -112.17961 | 8306 ft | 187 kts | 224° |
| 2026-05-05 18:00 | 35.91209 | -112.19251 | 8811 ft | 204 kts | 243° |
| 2026-05-05 18:01 | 35.90867 | -112.21006 | 9090 ft | 222 kts | 271° |
| 2026-05-05 18:01 | 35.91231 | -112.22945 | 9192 ft | 242 kts | 282° |
| 2026-05-05 18:01 | 35.91612 | -112.24993 | 9247 ft | 251 kts | 279° |
| 2026-05-05 18:01 | 35.91998 | -112.27165 | 9334 ft | 267 kts | 280° |
| 2026-05-05 18:02 | 35.92409 | -112.29408 | 9407 ft | 274 kts | 281° |
| 2026-05-05 18:02 | 35.92617 | -112.31728 | 9510 ft | 270 kts | 261° |
| 2026-05-05 18:02 | 35.92079 | -112.33938 | 9654 ft | 272 kts | 249° |
| 2026-05-05 18:02 | 35.91434 | -112.36138 | 9772 ft | 273 kts | 249° |
| 2026-05-05 18:03 | 35.90778 | -112.38345 | 9876 ft | 275 kts | 249° |
| 2026-05-05 18:03 | 35.90108 | -112.40565 | 9924 ft | 278 kts | 248° |
| 2026-05-05 18:03 | 35.89421 | -112.42867 | 10326 ft | 295 kts | 251° |
| 2026-05-05 18:03 | 35.88841 | -112.45385 | 10723 ft | 314 kts | 253° |
| 2026-05-05 18:04 | 35.88232 | -112.48032 | 11244 ft | 327 kts | 252° |
| 2026-05-05 18:04 | 35.87592 | -112.50767 | 11913 ft | 333 kts | 252° |
| 2026-05-05 18:04 | 35.86941 | -112.53518 | 12771 ft | 337 kts | 252° |
| 2026-05-05 18:04 | 35.86276 | -112.56316 | 13558 ft | 342 kts | 252° |
| 2026-05-05 18:05 | 35.85602 | -112.59146 | 14302 ft | 346 kts | 251° |
| 2026-05-05 18:05 | 35.84921 | -112.62005 | 15029 ft | 350 kts | 251° |
| 2026-05-05 18:05 | 35.84241 | -112.64852 | 15749 ft | 353 kts | 251° |
| 2026-05-05 18:05 | 35.83533 | -112.67815 | 16463 ft | 358 kts | 251° |
| 2026-05-05 18:06 | 35.82825 | -112.70773 | 17166 ft | 361 kts | 251° |
| 2026-05-05 18:06 | 35.82352 | -112.72745 | 17623 ft | 364 kts | 251° |
| 2026-05-05 18:06 | 35.81396 | -112.76733 | 18468 ft | 369 kts | 251° |
| 2026-05-05 18:06 | 35.80663 | -112.79786 | 19077 ft | 372 kts | 251° |
| 2026-05-05 18:07 | 35.79921 | -112.82870 | 19649 ft | 376 kts | 251° |
| 2026-05-05 18:07 | 35.79175 | -112.85965 | 20253 ft | 379 kts | 251° |
| 2026-05-05 18:07 | 35.78422 | -112.89088 | 20838 ft | 382 kts | 251° |
| 2026-05-05 18:07 | 35.77665 | -112.92226 | 21422 ft | 384 kts | 251° |
| 2026-05-05 18:08 | 35.76899 | -112.95393 | 22000 ft | 387 kts | 251° |
| 2026-05-05 18:08 | 35.76127 | -112.98585 | 22565 ft | 390 kts | 251° |
| 2026-05-05 18:08 | 35.75348 | -113.01796 | 23129 ft | 393 kts | 251° |
| 2026-05-05 18:08 | 35.74563 | -113.05030 | 23637 ft | 396 kts | 251° |
| 2026-05-05 18:09 | 35.73772 | -113.08286 | 24113 ft | 398 kts | 251° |
| 2026-05-05 18:09 | 35.72977 | -113.11555 | 24597 ft | 399 kts | 252° |
| 2026-05-05 18:09 | 35.72177 | -113.14839 | 25015 ft | 403 kts | 252° |
| 2026-05-05 18:09 | 35.71369 | -113.18153 | 25462 ft | 405 kts | 252° |
| 2026-05-05 18:10 | 35.70568 | -113.21434 | 25917 ft | 407 kts | 252° |
| 2026-05-05 18:10 | 35.69730 | -113.24770 | 26339 ft | 409 kts | 248° |
| 2026-05-05 18:10 | 35.68398 | -113.27851 | 26772 ft | 408 kts | 232° |
| 2026-05-05 18:10 | 35.66387 | -113.30302 | 27161 ft | 410 kts | 214° |
| 2026-05-05 18:11 | 35.63827 | -113.31844 | 27584 ft | 413 kts | 198° |
| 2026-05-05 18:11 | 35.60976 | -113.32395 | 27949 ft | 419 kts | 182° |
| 2026-05-05 18:11 | 35.58079 | -113.31878 | 28470 ft | 425 kts | 166° |
| 2026-05-05 18:11 | 35.55353 | -113.30395 | 28740 ft | 436 kts | 152° |
| 2026-05-05 18:12 | 35.52977 | -113.28027 | 28821 ft | 446 kts | 136° |
| 2026-05-05 18:12 | 35.51158 | -113.24918 | 28828 ft | 454 kts | 121° |
| 2026-05-05 18:12 | 35.50048 | -113.21261 | 28833 ft | 462 kts | 105° |
| 2026-05-05 18:12 | 35.49753 | -113.17317 | 28822 ft | 469 kts | 89° |
| 2026-05-05 18:13 | 35.50331 | -113.13372 | 28825 ft | 474 kts | 72° |
| 2026-05-05 18:13 | 35.51810 | -113.09747 | 28808 ft | 477 kts | 56° |
| 2026-05-05 18:13 | 35.53759 | -113.06439 | 28823 ft | 481 kts | 59° |
| 2026-05-05 18:13 | 35.55156 | -113.02722 | 28825 ft | 480 kts | 76° |
| 2026-05-05 18:14 | 35.55658 | -112.98709 | 28833 ft | 473 kts | 94° |
| 2026-05-05 18:14 | 35.54873 | -112.90755 | 28822 ft | 469 kts | 102° |
| 2026-05-05 18:15 | 35.53917 | -112.82822 | 28840 ft | 469 kts | 103° |
| 2026-05-05 18:15 | 35.52936 | -112.74898 | 28826 ft | 470 kts | 103° |
| 2026-05-05 18:16 | 35.51956 | -112.67015 | 28840 ft | 470 kts | 103° |
| 2026-05-05 18:16 | 35.50960 | -112.59063 | 28836 ft | 474 kts | 104° |
| 2026-05-05 18:17 | 35.49028 | -112.51527 | 28855 ft | 454 kts | 129° |
| 2026-05-05 18:17 | 35.47077 | -112.48561 | 28900 ft | 441 kts | 143° |
| 2026-05-05 18:17 | 35.44675 | -112.46320 | 28920 ft | 431 kts | 154° |
| 2026-05-05 18:17 | 35.42050 | -112.44650 | 28885 ft | 418 kts | 167° |
| 2026-05-05 18:18 | 35.39286 | -112.43684 | 28950 ft | 412 kts | 172° |
| 2026-05-05 18:18 | 35.33688 | -112.42246 | 28961 ft | 410 kts | 175° |
| 2026-05-05 18:19 | 35.28090 | -112.41059 | 28965 ft | 407 kts | 177° |
| 2026-05-05 18:19 | 35.22536 | -112.39953 | 28972 ft | 406 kts | 177° |
| 2026-05-05 18:20 | 35.16950 | -112.38785 | 28950 ft | 407 kts | 176° |
| 2026-05-05 18:20 | 35.11363 | -112.37571 | 28861 ft | 407 kts | 176° |
| 2026-05-05 18:21 | 35.05790 | -112.36366 | 28859 ft | 406 kts | 178° |
| 2026-05-05 18:21 | 35.00230 | -112.35167 | 28868 ft | 405 kts | 177° |
| 2026-05-05 18:22 | 34.94711 | -112.33977 | 28897 ft | 405 kts | 178° |
| 2026-05-05 18:22 | 34.89154 | -112.32782 | 28907 ft | 404 kts | 178° |
| 2026-05-05 18:22 | 34.86427 | -112.32189 | 28513 ft | 394 kts | 178° |
| 2026-05-05 18:23 | 34.83763 | -112.31599 | 28282 ft | 383 kts | 178° |
| 2026-05-05 18:23 | 34.81148 | -112.31023 | 27979 ft | 381 kts | 178° |
| 2026-05-05 18:23 | 34.78544 | -112.30450 | 27577 ft | 380 kts | 178° |
| 2026-05-05 18:23 | 34.75940 | -112.29877 | 27168 ft | 379 kts | 177° |
| 2026-05-05 18:24 | 34.73354 | -112.29309 | 26769 ft | 378 kts | 177° |
| 2026-05-05 18:24 | 34.70773 | -112.28742 | 26369 ft | 377 kts | 176° |
| 2026-05-05 18:24 | 34.68188 | -112.28175 | 25972 ft | 376 kts | 176° |
| 2026-05-05 18:24 | 34.65620 | -112.27611 | 25559 ft | 375 kts | 175° |
| 2026-05-05 18:25 | 34.63058 | -112.27049 | 25146 ft | 374 kts | 176° |
| 2026-05-05 18:25 | 34.62194 | -112.26861 | 25017 ft | 373 kts | 176° |
| 2026-05-05 18:25 | 34.57960 | -112.25933 | 24342 ft | 371 kts | 175° |
| 2026-05-05 18:25 | 34.55413 | -112.25375 | 23936 ft | 371 kts | 174° |
| 2026-05-05 18:26 | 34.52877 | -112.24821 | 23518 ft | 370 kts | 174° |
| 2026-05-05 18:26 | 34.50347 | -112.24269 | 23040 ft | 369 kts | 174° |
| 2026-05-05 18:26 | 34.47830 | -112.23720 | 22605 ft | 365 kts | 173° |
| 2026-05-05 18:26 | 34.45379 | -112.23183 | 22216 ft | 361 kts | 173° |
| 2026-05-05 18:27 | 34.42925 | -112.22550 | 21722 ft | 359 kts | 171° |
| 2026-05-05 18:27 | 34.40500 | -112.21914 | 21374 ft | 354 kts | 173° |
| 2026-05-05 18:27 | 34.38106 | -112.21293 | 21026 ft | 350 kts | 173° |
| 2026-05-05 18:27 | 34.35737 | -112.20682 | 20638 ft | 347 kts | 173° |
| 2026-05-05 18:28 | 34.31061 | -112.19475 | 19902 ft | 340 kts | 173° |
| 2026-05-05 18:28 | 34.28753 | -112.18880 | 19537 ft | 337 kts | 172° |
| 2026-05-05 18:28 | 34.26469 | -112.18292 | 19183 ft | 335 kts | 172° |
| 2026-05-05 18:29 | 34.24199 | -112.17708 | 18823 ft | 331 kts | 172° |
| 2026-05-05 18:29 | 34.21954 | -112.17131 | 18475 ft | 328 kts | 172° |
| 2026-05-05 18:29 | 34.19716 | -112.16556 | 18111 ft | 327 kts | 172° |
| 2026-05-05 18:29 | 34.17485 | -112.15983 | 17719 ft | 328 kts | 172° |
| 2026-05-05 18:30 | 34.15321 | -112.15427 | 17369 ft | 315 kts | 172° |
| 2026-05-05 18:30 | 34.13224 | -112.14889 | 17062 ft | 301 kts | 172° |
| 2026-05-05 18:30 | 34.11178 | -112.14364 | 16743 ft | 301 kts | 172° |
| 2026-05-05 18:30 | 34.09135 | -112.13840 | 16412 ft | 299 kts | 171° |
| 2026-05-05 18:31 | 34.07127 | -112.13074 | 15858 ft | 306 kts | 165° |
| 2026-05-05 18:31 | 34.05125 | -112.12230 | 15418 ft | 301 kts | 165° |
| 2026-05-05 18:31 | 34.03170 | -112.11423 | 14981 ft | 294 kts | 166° |
| 2026-05-05 18:31 | 34.01231 | -112.10633 | 14561 ft | 295 kts | 166° |
| 2026-05-05 18:32 | 33.99276 | -112.09844 | 14080 ft | 295 kts | 166° |
| 2026-05-05 18:32 | 33.97339 | -112.09065 | 13599 ft | 290 kts | 166° |
| 2026-05-05 18:32 | 33.95471 | -112.08317 | 13106 ft | 284 kts | 166° |
| 2026-05-05 18:32 | 33.93604 | -112.07569 | 12636 ft | 282 kts | 166° |
| 2026-05-05 18:33 | 33.91743 | -112.06824 | 12189 ft | 282 kts | 165° |
| 2026-05-05 18:33 | 33.89883 | -112.06079 | 11757 ft | 281 kts | 165° |
| 2026-05-05 18:33 | 33.88028 | -112.05336 | 11310 ft | 281 kts | 165° |
| 2026-05-05 18:33 | 33.86192 | -112.04590 | 10941 ft | 276 kts | 165° |
| 2026-05-05 18:34 | 33.84965 | -112.04091 | 10696 ft | 276 kts | 165° |
| 2026-05-05 18:34 | 33.83154 | -112.03353 | 10362 ft | 278 kts | 165° |
| 2026-05-05 18:34 | 33.81320 | -112.02611 | 10079 ft | 278 kts | 165° |
| 2026-05-05 18:34 | 33.79485 | -112.01868 | 9771 ft | 278 kts | 165° |
| 2026-05-05 18:35 | 33.77659 | -112.01129 | 9415 ft | 277 kts | 164° |
| 2026-05-05 18:35 | 33.75836 | -112.00391 | 9067 ft | 275 kts | 165° |
| 2026-05-05 18:35 | 33.74041 | -111.99665 | 8988 ft | 267 kts | 164° |
| 2026-05-05 18:35 | 33.72339 | -111.98977 | 8903 ft | 256 kts | 164° |
| 2026-05-05 18:36 | 33.70684 | -111.98308 | 8833 ft | 249 kts | 164° |
| 2026-05-05 18:36 | 33.69035 | -111.97643 | 8812 ft | 251 kts | 164° |
| 2026-05-05 18:36 | 33.67377 | -111.96973 | 8776 ft | 250 kts | 164° |
| 2026-05-05 18:36 | 33.65721 | -111.96305 | 8696 ft | 251 kts | 164° |
| 2026-05-05 18:37 | 33.64064 | -111.95635 | 8453 ft | 251 kts | 164° |
| 2026-05-05 18:37 | 33.62424 | -111.94972 | 8135 ft | 244 kts | 164° |
| 2026-05-05 18:37 | 33.60851 | -111.94336 | 7871 ft | 234 kts | 164° |
| 2026-05-05 18:37 | 33.59345 | -111.93727 | 7651 ft | 224 kts | 165° |
| 2026-05-05 18:38 | 33.57862 | -111.93129 | 7458 ft | 225 kts | 165° |
| 2026-05-05 18:38 | 33.56383 | -111.92532 | 7333 ft | 225 kts | 163° |
| 2026-05-05 18:38 | 33.54904 | -111.91932 | 7103 ft | 228 kts | 163° |
| 2026-05-05 18:38 | 33.53563 | -111.90902 | 6730 ft | 235 kts | 134° |
| 2026-05-05 18:39 | 33.52839 | -111.89159 | 6299 ft | 239 kts | 103° |
| 2026-05-05 18:39 | 33.52757 | -111.87169 | 5928 ft | 239 kts | 93° |
| 2026-05-05 18:39 | 33.52731 | -111.85167 | 5519 ft | 241 kts | 97° |
| 2026-05-05 18:39 | 33.52250 | -111.83294 | 5055 ft | 234 kts | 128° |
| 2026-05-05 18:40 | 33.51072 | -111.82041 | 4623 ft | 225 kts | 159° |
| 2026-05-05 18:40 | 33.49591 | -111.81658 | 4360 ft | 210 kts | 179° |
| 2026-05-05 18:40 | 33.48203 | -111.81665 | 4267 ft | 191 kts | 198° |
| 2026-05-05 18:40 | 33.47153 | -111.82491 | 4093 ft | 177 kts | 232° |
| 2026-05-05 18:41 | 33.46521 | -111.83670 | 4053 ft | 162 kts | 239° |
| 2026-05-05 18:41 | 33.45966 | -111.84835 | 4030 ft | 161 kts | 239° |
| 2026-05-05 18:41 | 33.45418 | -111.86020 | 3623 ft | 166 kts | 240° |
| 2026-05-05 18:41 | 33.44856 | -111.87258 | 3186 ft | 170 kts | 245° |
| 2026-05-05 18:42 | 33.44416 | -111.88528 | 2949 ft | 158 kts | 246° |
| 2026-05-05 18:42 | 33.44123 | -111.89730 | 2729 ft | 147 kts | 259° |
| 2026-05-05 18:42 | 33.44060 | -111.90942 | 2528 ft | 149 kts | 268° |
| 2026-05-05 18:42 | 33.44074 | -111.92179 | 2349 ft | 147 kts | 267° |
| 2026-05-05 18:43 | 33.44072 | -111.93398 | 2138 ft | 146 kts | 269° |
| 2026-05-05 18:43 | 33.44075 | -111.94625 | 1937 ft | 150 kts | 269° |
| 2026-05-05 18:43 | 33.44100 | -111.95849 | 1745 ft | 144 kts | 268° |
| 2026-05-05 18:43 | 33.44088 | -111.97035 | 1585 ft | 142 kts | 267° |
| 2026-05-05 18:44 | 33.44084 | -111.98197 | 1336 ft | 138 kts | 270° |
| 2026-05-05 18:44 | 33.44090 | -111.99306 | 1156 ft | 128 kts | 270° |
| 2026-05-05 18:44 | 33.44088 | -112.00255 | 1134 ft | 95 kts | 270° |
| 2026-05-05 18:44 | 33.44090 | -112.00860 | 1133 ft | 50 kts | 270° |
| 2026-05-05 18:45 | 33.44087 | -112.01124 | 1135 ft | 20 kts | 269° |
| 2026-05-05 18:45 | 33.44081 | -112.01300 | 1138 ft | 18 kts | 255° |
| 2026-05-05 18:45 | 33.44031 | -112.01372 | 1136 ft | 6 kts | 224° |
| 2026-05-05 18:45 | 33.44022 | -112.01383 | 1139 ft | 0 kts | 224° |
| 2026-05-05 18:47 | 33.44021 | -112.01384 | 1139 ft | 1 kts | 224° |
| 2026-05-05 18:48 | 33.44006 | -112.01401 | 1135 ft | 4 kts | 223° |
| 2026-05-05 18:48 | 33.43972 | -112.01426 | 1136 ft | 7 kts | 203° |
| 2026-05-05 18:48 | 33.43919 | -112.01423 | 1135 ft | 9 kts | 144° |
| 2026-05-05 18:48 | 33.43902 | -112.01350 | 1134 ft | 10 kts | 91° |
| 2026-05-05 18:49 | 33.43901 | -112.01255 | 1133 ft | 12 kts | 89° |
| 2026-05-05 18:49 | 33.43902 | -112.01142 | 1133 ft | 14 kts | 90° |
| 2026-05-05 18:49 | 33.43891 | -112.01053 | 1135 ft | 9 kts | 123° |
| 2026-05-05 18:49 | 33.43834 | -112.01025 | 1136 ft | 1 kts | 174° |
| 2026-05-05 18:50 | 33.43819 | -112.01020 | 1134 ft | 3 kts | 154° |
| 2026-05-05 18:50 | 33.43799 | -112.00991 | 1135 ft | 5 kts | 112° |
| 2026-05-05 18:50 | 33.43786 | -112.00933 | 1137 ft | 0 kts | 103° |